Weather at San Antonio International Airport

Public forecast

Using degrees Fahrenheit for public forecast. Weather courtesy of forecast.io.

Current aviation weather report (METAR) for San Antonio International Airport

Retrieved 2021/01/20 22:22 UTC (0 seconds ago):

KSAT 202222Z 31003KT 1 1/2SM R13R/5000VP6000FT -RA BR OVC004 11/10 A3019

Aviation forecast (TAF) for San Antonio International Airport

Retrieved 2021/01/20 18:22 UTC (4 hours ago):

TAF KSAT 201720Z 2018/2124 04006KT 6SM BR VCSH OVC007 FM210300 00000KT P6SM OVC006 PROB30 2103/2109 4SM -SHRA BR OVC004 FM211400 VRB04KT 6SM BR VCSH OVC009 FM212200 VRB04KT P6SM OVC011